createdAt,value
2022-08-05T00:00:00.706Z,28.14
2022-08-05T00:02:29.263Z,28.17
2022-08-05T00:04:58.113Z,28.27
2022-08-05T00:07:59.196Z,28.19
2022-08-05T00:10:14.931Z,28.11
2022-08-05T00:12:55.652Z,28.19
2022-08-05T00:15:55.249Z,27.93
2022-08-05T00:18:21.387Z,27.70
2022-08-05T00:20:50.383Z,27.63
2022-08-05T00:23:44.741Z,27.58
2022-08-05T00:26:08.658Z,27.39
2022-08-05T00:28:39.061Z,27.44
2022-08-05T00:31:08.835Z,27.38
2022-08-05T00:34:54.815Z,27.33
2022-08-05T00:37:10.848Z,27.36
2022-08-05T00:39:16.323Z,27.42
2022-08-05T00:41:55.345Z,27.43
2022-08-05T00:44:30.802Z,27.38
2022-08-05T00:47:01.970Z,27.36
2022-08-05T00:49:44.439Z,27.34
2022-08-05T00:52:28.183Z,27.35
2022-08-05T00:54:57.696Z,27.28
2022-08-05T00:57:38.381Z,27.32
2022-08-05T01:00:17.175Z,27.39
2022-08-05T01:02:50.155Z,27.22
2022-08-05T01:05:18.715Z,27.13
2022-08-05T01:08:40.890Z,27.14
2022-08-05T01:10:51.569Z,26.99
2022-08-05T01:13:57.952Z,26.97
2022-08-05T01:16:31.365Z,26.73
2022-08-05T01:19:10.624Z,26.65
2022-08-05T01:22:15.506Z,26.79
2022-08-05T01:25:56.474Z,26.71
2022-08-05T01:28:39.456Z,26.73
2022-08-05T01:31:14.770Z,26.68
2022-08-05T01:33:53.497Z,26.57
2022-08-05T01:36:27.967Z,26.50
2022-08-05T01:39:00.231Z,26.28
2022-08-05T01:41:35.081Z,26.08
2022-08-05T01:44:09.802Z,26.16
2022-08-05T01:46:42.828Z,26.12
2022-08-05T01:49:24.155Z,26.26
2022-08-05T01:51:58.871Z,26.32
2022-08-05T01:54:34.553Z,26.19
2022-08-05T01:58:13.083Z,26.11
2022-08-05T02:00:11.885Z,26.19
2022-08-05T02:02:51.139Z,26.05
2022-08-05T02:05:23.472Z,26.05
2022-08-05T02:07:59.996Z,26.03
2022-08-05T02:10:35.999Z,25.98
2022-08-05T02:13:16.170Z,25.93
2022-08-05T02:15:51.857Z,25.76
2022-08-05T02:18:30.791Z,25.71
2022-08-05T02:21:13.249Z,25.65
2022-08-05T02:23:48.515Z,25.44
2022-08-05T02:26:23.317Z,25.23
2022-08-05T02:28:58.186Z,25.26
2022-08-05T02:31:34.664Z,25.20
2022-08-05T02:34:09.386Z,25.22
2022-08-05T02:36:44.076Z,25.10
2022-08-05T02:39:13.803Z,25.09
2022-08-05T02:41:57.777Z,25.20
2022-08-05T02:44:31.640Z,25.38
2022-08-05T02:47:02.609Z,25.27
2022-08-05T02:49:40.325Z,25.15
2022-08-05T02:52:13.666Z,25.23
2022-08-05T02:55:05.056Z,25.24
2022-08-05T02:58:20.411Z,25.05
2022-08-05T03:00:25.471Z,24.72
2022-08-05T03:02:58.610Z,24.58
2022-08-05T03:06:56.227Z,24.72
2022-08-05T03:08:16.710Z,24.66
2022-08-05T03:11:53.025Z,24.66
2022-08-05T03:13:51.964Z,24.66
2022-08-05T03:16:31.544Z,24.64
2022-08-05T03:19:04.263Z,24.64
2022-08-05T03:21:48.756Z,24.60
2022-08-05T03:24:28.648Z,24.61
2022-08-05T03:26:58.830Z,24.97
2022-08-05T03:29:45.761Z,24.69
2022-08-05T03:32:17.304Z,24.56
2022-08-05T03:34:50.959Z,24.40
2022-08-05T03:37:22.606Z,24.39
2022-08-05T03:40:01.120Z,24.49
2022-08-05T03:42:32.195Z,24.50
2022-08-05T03:45:11.805Z,24.40
2022-08-05T03:47:50.175Z,24.54
2022-08-05T03:50:21.373Z,24.57
2022-08-05T03:55:06.709Z,24.39
2022-08-05T03:56:10.395Z,24.29
2022-08-05T03:58:48.511Z,24.15
2022-08-05T04:01:22.478Z,23.98
2022-08-05T04:04:08.899Z,24.19
2022-08-05T04:06:47.603Z,23.95
2022-08-05T04:09:26.274Z,23.92
2022-08-05T04:11:56.989Z,24.00
2022-08-05T04:14:29.789Z,23.92
2022-08-05T04:17:02.140Z,23.82
2022-08-05T04:19:31.841Z,23.78
2022-08-05T04:22:09.301Z,23.73
2022-08-05T04:24:44.425Z,23.82
2022-08-05T04:27:15.316Z,23.81
2022-08-05T04:29:44.006Z,24.13
2022-08-05T04:32:13.663Z,24.01
2022-08-05T04:34:48.357Z,24.06
2022-08-05T04:37:18.197Z,24.15
2022-08-05T04:39:46.742Z,24.14
2022-08-05T04:42:21.361Z,24.04
2022-08-05T04:44:53.973Z,23.91
2022-08-05T04:47:22.582Z,23.91
2022-08-05T04:50:06.524Z,23.77
2022-08-05T04:52:40.946Z,23.78
2022-08-05T04:55:14.977Z,23.74
2022-08-05T04:57:47.537Z,23.90
2022-08-05T05:00:17.654Z,23.90
2022-08-05T05:02:46.251Z,23.80
2022-08-05T05:05:16.699Z,23.67
2022-08-05T05:08:01.568Z,23.67
2022-08-05T05:10:31.084Z,23.54
2022-08-05T05:13:03.767Z,23.67
2022-08-05T05:15:56.974Z,23.68
2022-08-05T05:18:31.158Z,23.70
2022-08-05T05:21:04.248Z,23.75
2022-08-05T05:23:39.057Z,23.84
2022-08-05T05:26:28.863Z,24.10
2022-08-05T05:29:02.738Z,24.00
2022-08-05T05:31:46.228Z,24.18
2022-08-05T05:34:15.495Z,24.05
2022-08-05T05:36:47.068Z,24.03
2022-08-05T05:39:19.125Z,24.35
2022-08-05T05:41:54.493Z,24.35
2022-08-05T05:44:37.766Z,24.28
2022-08-05T05:47:23.564Z,24.18
2022-08-05T05:50:01.774Z,24.29
2022-08-05T05:52:37.935Z,24.33
2022-08-05T05:55:13.669Z,24.27
2022-08-05T05:57:52.927Z,24.63
2022-08-05T06:00:31.465Z,24.63
2022-08-05T06:03:03.435Z,24.78
2022-08-05T06:05:54.047Z,24.95
2022-08-05T06:08:32.778Z,25.17
2022-08-05T06:11:02.805Z,24.92
2022-08-05T06:13:40.821Z,24.84
2022-08-05T06:16:29.589Z,25.00
2022-08-05T06:19:02.087Z,25.62
2022-08-05T06:21:36.159Z,26.31
2022-08-05T06:24:11.239Z,26.32
2022-08-05T06:26:51.351Z,26.31
2022-08-05T06:29:45.464Z,26.02
2022-08-05T06:32:26.165Z,25.94
2022-08-05T06:34:59.336Z,25.97
2022-08-05T06:37:56.546Z,25.85
2022-08-05T06:40:18.503Z,26.58
2022-08-05T06:42:52.810Z,27.30
2022-08-05T06:46:02.950Z,27.91
2022-08-05T06:48:50.472Z,27.61
2022-08-05T06:51:00.026Z,27.48
2022-08-05T06:53:29.378Z,27.40
2022-08-05T06:55:59.284Z,27.02
2022-08-05T06:58:36.108Z,26.87
2022-08-05T07:01:06.910Z,26.35
2022-08-05T07:03:36.359Z,26.02
2022-08-05T07:06:14.274Z,25.81
2022-08-05T07:08:47.328Z,26.10
2022-08-05T07:11:16.882Z,25.88
2022-08-05T07:14:20.010Z,25.84
2022-08-05T07:17:59.113Z,25.96
2022-08-05T07:22:30.515Z,25.73
2022-08-05T07:25:21.697Z,25.72
2022-08-05T07:27:58.828Z,25.77
2022-08-05T07:30:34.521Z,25.96
2022-08-05T07:33:10.646Z,26.20
2022-08-05T07:36:03.459Z,26.49
2022-08-05T07:38:43.178Z,26.42
2022-08-05T07:42:07.991Z,26.33
2022-08-05T07:44:18.431Z,26.04
2022-08-05T07:46:50.515Z,25.70
2022-08-05T07:49:20.566Z,25.87
2022-08-05T07:51:54.243Z,25.77
2022-08-05T07:54:30.885Z,25.66
2022-08-05T07:57:14.603Z,25.72
2022-08-05T07:59:46.973Z,25.74
2022-08-05T08:02:18.962Z,25.72
2022-08-05T08:04:48.686Z,25.82
2022-08-05T08:07:21.978Z,25.54
2022-08-05T08:09:52.586Z,25.47
2022-08-05T08:12:37.172Z,25.34
2022-08-05T08:15:15.141Z,25.43
2022-08-05T08:17:50.769Z,25.24
2022-08-05T08:21:00.515Z,25.34
2022-08-05T08:24:00.142Z,25.33
2022-08-05T08:26:02.693Z,25.47
2022-08-05T08:28:36.410Z,25.55
2022-08-05T08:31:06.148Z,25.73
2022-08-05T08:33:38.346Z,25.71
2022-08-05T08:38:57.596Z,25.45
2022-08-05T08:41:52.562Z,25.39
2022-08-05T08:45:23.125Z,25.43
2022-08-05T08:47:47.370Z,25.93
2022-08-05T08:50:06.142Z,26.02
2022-08-05T08:52:55.876Z,26.09
2022-08-05T08:56:03.003Z,26.49
2022-08-05T08:58:13.557Z,26.87
2022-08-05T09:00:44.368Z,26.99
2022-08-05T09:03:16.261Z,26.77
2022-08-05T09:06:08.689Z,26.92
2022-08-05T09:08:40.402Z,27.19
2022-08-05T09:11:12.361Z,27.29
2022-08-05T09:14:09.233Z,27.30
2022-08-05T09:16:32.448Z,27.16
2022-08-05T09:19:00.883Z,26.94
2022-08-05T09:22:22.941Z,27.14
2022-08-05T09:24:25.059Z,26.99
2022-08-05T09:26:59.489Z,26.79
2022-08-05T09:29:47.664Z,26.68
2022-08-05T09:32:40.772Z,26.86
2022-08-05T09:35:26.673Z,26.50
2022-08-05T09:38:17.471Z,26.32
2022-08-05T09:40:52.393Z,26.38
2022-08-05T09:43:40.178Z,26.55
2022-08-05T09:46:28.455Z,26.81
2022-08-05T09:49:06.971Z,26.86
2022-08-05T09:51:49.380Z,26.66
2022-08-05T09:54:32.086Z,26.84
2022-08-05T09:57:01.348Z,26.73
2022-08-05T09:59:37.066Z,26.63
2022-08-05T10:02:06.539Z,26.69
2022-08-05T10:04:41.067Z,26.64
2022-08-05T10:07:21.045Z,26.46
2022-08-05T10:10:15.323Z,26.50
2022-08-05T10:12:51.356Z,26.46
2022-08-05T10:15:25.884Z,26.33
2022-08-05T10:18:13.880Z,26.25
2022-08-05T10:20:47.700Z,26.49
2022-08-05T10:23:34.485Z,26.35
2022-08-05T10:26:14.575Z,26.32
2022-08-05T10:28:46.359Z,26.52
2022-08-05T10:32:52.973Z,26.78
2022-08-05T10:34:07.026Z,27.03
2022-08-05T10:36:37.913Z,27.20
2022-08-05T10:39:15.055Z,27.42
2022-08-05T10:42:01.303Z,27.47
2022-08-05T10:44:32.665Z,27.22
2022-08-05T10:47:27.089Z,27.47
2022-08-05T10:50:32.590Z,27.38
2022-08-05T10:52:59.818Z,27.36
2022-08-05T10:55:30.420Z,27.29
2022-08-05T10:58:15.696Z,27.46
2022-08-05T11:00:55.314Z,27.65
2022-08-05T11:03:31.349Z,27.82
2022-08-05T11:06:15.837Z,27.67
2022-08-05T11:09:24.478Z,27.85
2022-08-05T11:12:01.107Z,27.95
2022-08-05T11:15:11.714Z,27.67
2022-08-05T11:17:59.385Z,27.74
2022-08-05T11:20:44.328Z,27.78
2022-08-05T11:24:02.895Z,27.65
2022-08-05T11:26:28.360Z,27.92
2022-08-05T11:29:02.455Z,27.77
2022-08-05T11:31:57.942Z,27.99
2022-08-05T11:34:51.103Z,27.73
2022-08-05T11:38:30.747Z,27.46
2022-08-05T11:41:35.426Z,27.26
2022-08-05T11:44:06.535Z,27.25
2022-08-05T11:47:09.296Z,27.26
2022-08-05T11:49:28.741Z,27.67
2022-08-05T11:51:57.911Z,27.49
2022-08-05T11:54:33.587Z,27.82
2022-08-05T11:57:08.678Z,28.11
2022-08-05T11:59:54.202Z,28.55
2022-08-05T12:02:31.409Z,28.62
2022-08-05T12:05:06.850Z,29.05
2022-08-05T12:08:08.963Z,28.58
2022-08-05T12:10:38.569Z,28.75
2022-08-05T12:13:27.660Z,28.86
2022-08-05T12:16:14.458Z,29.03
2022-08-05T12:18:52.338Z,29.11
2022-08-05T12:21:26.643Z,29.06
2022-08-05T12:24:00.015Z,28.74
2022-08-05T12:26:37.526Z,28.78
2022-08-05T12:29:09.795Z,28.82
2022-08-05T12:31:53.549Z,28.94
2022-08-05T12:34:26.796Z,28.84
2022-08-05T12:36:59.470Z,28.64
2022-08-05T12:39:37.055Z,28.76
2022-08-05T12:42:14.939Z,28.17
2022-08-05T12:44:46.005Z,28.09
2022-08-05T12:47:28.844Z,28.01
2022-08-05T12:50:03.284Z,28.24
2022-08-05T12:52:38.673Z,28.25
2022-08-05T12:55:23.495Z,28.26
2022-08-05T12:58:48.313Z,28.15
2022-08-05T13:01:59.858Z,28.35
2022-08-05T13:03:38.969Z,28.33
2022-08-05T13:06:17.186Z,28.30
2022-08-05T13:08:52.354Z,28.16
2022-08-05T13:11:46.968Z,27.96
2022-08-05T13:14:24.647Z,27.88
2022-08-05T13:16:57.034Z,27.77
2022-08-05T13:19:52.166Z,27.93
2022-08-05T13:22:29.711Z,28.01
2022-08-05T13:25:05.522Z,27.75
2022-08-05T13:27:38.153Z,27.60
2022-08-05T13:30:34.063Z,27.54
2022-08-05T13:33:00.977Z,27.54
2022-08-05T13:35:43.204Z,27.60
2022-08-05T13:38:27.961Z,27.74
2022-08-05T13:41:00.669Z,27.73
2022-08-05T13:43:45.034Z,27.58
2022-08-05T13:46:35.790Z,27.34
2022-08-05T13:49:10.052Z,26.89
2022-08-05T13:51:46.110Z,26.86
2022-08-05T13:54:20.979Z,27.04
2022-08-05T13:56:55.292Z,27.00
2022-08-05T13:59:26.998Z,27.13
2022-08-05T14:02:00.076Z,26.85
2022-08-05T14:04:50.021Z,26.64
2022-08-05T14:07:25.862Z,26.77
2022-08-05T14:10:13.386Z,26.30
2022-08-05T14:12:48.752Z,26.27
2022-08-05T14:16:07.974Z,26.40
2022-08-05T14:18:14.796Z,26.43
2022-08-05T14:20:46.868Z,26.10
2022-08-05T14:23:25.291Z,26.24
2022-08-05T14:25:59.017Z,26.24
2022-08-05T14:28:30.030Z,26.11
2022-08-05T14:30:59.440Z,26.38
2022-08-05T14:33:32.502Z,26.62
2022-08-05T14:36:21.363Z,26.43
2022-08-05T14:38:51.101Z,26.56
2022-08-05T14:41:21.261Z,26.58
2022-08-05T14:44:02.417Z,26.58
2022-08-05T14:46:37.994Z,26.64
2022-08-05T14:49:08.099Z,26.43
2022-08-05T14:51:38.168Z,26.63
2022-08-05T14:54:28.268Z,26.56
2022-08-05T14:56:56.548Z,26.61
2022-08-05T14:59:29.342Z,26.49
2022-08-05T15:02:03.980Z,26.34
2022-08-05T15:04:44.850Z,26.43
2022-08-05T15:08:09.068Z,26.33
2022-08-05T15:10:09.587Z,26.10
2022-08-05T15:12:58.044Z,25.90
2022-08-05T15:15:53.980Z,25.57
2022-08-05T15:18:17.290Z,25.53
2022-08-05T15:20:46.102Z,25.50
2022-08-05T15:23:15.696Z,25.50
2022-08-05T15:25:51.996Z,25.38
2022-08-05T15:28:27.138Z,25.57
2022-08-05T15:30:57.131Z,25.57
2022-08-05T15:34:04.084Z,25.47
2022-08-05T15:36:17.301Z,25.36
2022-08-05T15:41:04.708Z,25.44
2022-08-05T15:41:55.954Z,25.21
2022-08-05T15:44:26.149Z,25.04
2022-08-05T15:46:56.133Z,25.03
2022-08-05T15:49:40.727Z,24.96
2022-08-05T15:52:51.812Z,24.95
2022-08-05T15:55:03.718Z,24.87
2022-08-05T15:57:34.634Z,24.84
2022-08-05T16:00:05.160Z,24.76
2022-08-05T16:02:33.968Z,24.78
2022-08-05T16:05:05.304Z,24.73
2022-08-05T16:07:38.029Z,24.67
2022-08-05T16:10:14.836Z,24.63
2022-08-05T16:12:43.228Z,24.42
2022-08-05T16:15:18.381Z,24.50
2022-08-05T16:17:57.661Z,24.38
2022-08-05T16:20:28.221Z,24.25
2022-08-05T16:22:57.500Z,24.24
2022-08-05T16:25:32.249Z,24.28
2022-08-05T16:28:05.922Z,24.21
2022-08-05T16:30:36.074Z,24.27
2022-08-05T16:33:05.164Z,24.17
2022-08-05T16:35:42.058Z,24.11
2022-08-05T16:38:18.713Z,24.17
2022-08-05T16:40:59.643Z,24.23
2022-08-05T16:43:30.706Z,24.16
2022-08-05T16:46:03.702Z,24.00
2022-08-05T16:48:39.159Z,23.74
2022-08-05T16:51:10.741Z,23.76
2022-08-05T16:54:02.830Z,23.63
2022-08-05T16:56:33.751Z,23.53
2022-08-05T16:59:08.140Z,23.54
2022-08-05T17:01:53.816Z,23.64
2022-08-05T17:04:26.970Z,23.31
2022-08-05T17:07:01.281Z,23.33
2022-08-05T17:09:57.459Z,23.45
2022-08-05T17:12:22.673Z,23.51
2022-08-05T17:15:09.434Z,23.59
2022-08-05T17:17:42.482Z,23.63
2022-08-05T17:20:14.900Z,23.69
2022-08-05T17:22:46.270Z,23.72
2022-08-05T17:25:39.421Z,23.69
2022-08-05T17:28:10.048Z,23.69
2022-08-05T17:30:50.734Z,23.61
2022-08-05T17:33:21.258Z,23.55
2022-08-05T17:36:07.300Z,23.58
2022-08-05T17:38:40.161Z,23.54
2022-08-05T17:41:11.727Z,23.45
2022-08-05T17:43:57.731Z,23.36
2022-08-05T17:46:26.312Z,23.50
2022-08-05T17:48:55.311Z,23.37
2022-08-05T17:51:23.979Z,23.38
2022-08-05T17:53:56.533Z,23.38
2022-08-05T17:56:28.490Z,23.28
2022-08-05T17:58:57.172Z,23.21
2022-08-05T18:01:25.653Z,23.24
2022-08-05T18:04:03.850Z,23.27
2022-08-05T18:06:33.325Z,23.22
2022-08-05T18:09:03.665Z,23.22
2022-08-05T18:11:33.567Z,22.99
2022-08-05T18:14:06.752Z,23.00
2022-08-05T18:16:43.730Z,23.02
2022-08-05T18:19:22.860Z,23.00
2022-08-05T18:22:08.448Z,22.95
2022-08-05T18:24:41.359Z,22.85
2022-08-05T18:27:12.373Z,22.86
2022-08-05T18:29:41.628Z,22.92
2022-08-05T18:32:12.992Z,22.76
2022-08-05T18:34:57.049Z,22.59
2022-08-05T18:37:34.151Z,22.60
2022-08-05T18:40:34.545Z,22.52
2022-08-05T18:43:00.432Z,22.38
2022-08-05T18:45:40.993Z,22.37
2022-08-05T18:48:11.155Z,22.26
2022-08-05T18:50:57.399Z,22.24
2022-08-05T18:53:34.753Z,22.17
2022-08-05T18:56:14.264Z,22.06
2022-08-05T18:58:43.001Z,22.04
2022-08-05T19:01:18.124Z,22.01
2022-08-05T19:03:55.090Z,22.01
2022-08-05T19:06:37.153Z,21.86
2022-08-05T19:09:12.769Z,21.87
2022-08-05T19:11:59.765Z,21.81
2022-08-05T19:14:52.440Z,21.84
2022-08-05T19:17:19.393Z,21.85
2022-08-05T19:19:48.803Z,21.74
2022-08-05T19:22:17.718Z,21.77
2022-08-05T19:24:54.392Z,21.68
2022-08-05T19:27:30.491Z,21.69
2022-08-05T19:29:59.390Z,21.67
2022-08-05T19:32:28.268Z,21.62
2022-08-05T19:34:57.912Z,21.61
2022-08-05T19:37:29.956Z,21.54
2022-08-05T19:40:16.241Z,21.54
2022-08-05T19:43:00.801Z,21.52
2022-08-05T19:45:36.771Z,21.53
2022-08-05T19:48:06.765Z,21.55
2022-08-05T19:50:43.545Z,21.51
2022-08-05T19:53:12.049Z,21.46
2022-08-05T19:56:14.238Z,21.42
2022-08-05T19:58:31.112Z,21.39
2022-08-05T20:01:11.641Z,21.37
2022-08-05T20:03:40.983Z,21.24
2022-08-05T20:06:15.441Z,21.13
2022-08-05T20:08:47.451Z,21.19
2022-08-05T20:11:17.930Z,21.20
2022-08-05T20:13:58.066Z,21.17
2022-08-05T20:16:38.166Z,21.11
2022-08-05T20:19:06.872Z,20.93
2022-08-05T20:21:37.847Z,20.94
2022-08-05T20:24:08.222Z,20.86
2022-08-05T20:26:40.069Z,20.87
2022-08-05T20:29:27.367Z,20.78
2022-08-05T20:31:58.285Z,20.88
2022-08-05T20:34:28.298Z,20.99
2022-08-05T20:36:56.732Z,21.30
2022-08-05T20:39:25.776Z,21.15
2022-08-05T20:42:04.561Z,21.13
2022-08-05T20:44:37.910Z,21.11
2022-08-05T20:47:08.181Z,21.09
2022-08-05T20:49:39.859Z,21.08
2022-08-05T20:52:10.618Z,21.17
2022-08-05T20:54:59.680Z,21.26
2022-08-05T20:57:44.135Z,21.06
2022-08-05T21:00:34.996Z,21.20
2022-08-05T21:03:07.975Z,21.32
2022-08-05T21:05:54.250Z,21.41
2022-08-05T21:08:26.763Z,21.40
2022-08-05T21:11:09.118Z,21.41
2022-08-05T21:13:56.252Z,21.35
2022-08-05T21:16:29.807Z,21.05
2022-08-05T21:19:01.077Z,21.07
2022-08-05T21:21:44.248Z,21.25
2022-08-05T21:24:19.986Z,21.10
2022-08-05T21:26:53.252Z,20.94
2022-08-05T21:29:26.608Z,21.00
2022-08-05T21:32:02.994Z,21.06
2022-08-05T21:34:32.970Z,20.94
2022-08-05T21:37:01.926Z,20.96
2022-08-05T21:39:34.470Z,20.94
2022-08-05T21:42:03.505Z,20.78
2022-08-05T21:44:32.310Z,20.62
2022-08-05T21:47:02.781Z,20.56
2022-08-05T21:49:58.524Z,20.64
2022-08-05T21:52:27.100Z,20.69
2022-08-05T21:55:07.090Z,20.61
2022-08-05T21:57:36.019Z,20.72
2022-08-05T22:00:10.901Z,20.61
2022-08-05T22:02:44.848Z,20.55
2022-08-05T22:05:14.802Z,20.70
2022-08-05T22:07:58.494Z,20.66
2022-08-05T22:10:30.885Z,20.70
2022-08-05T22:14:05.282Z,20.52
2022-08-05T22:16:00.444Z,20.59
2022-08-05T22:18:32.100Z,20.61
2022-08-05T22:21:00.674Z,20.59
2022-08-05T22:24:01.921Z,20.51
2022-08-05T22:26:49.425Z,20.29
2022-08-05T22:29:26.109Z,20.18
2022-08-05T22:31:59.506Z,20.19
2022-08-05T22:34:33.305Z,20.06
2022-08-05T22:37:03.806Z,19.98
2022-08-05T22:39:34.704Z,20.01
2022-08-05T22:42:09.286Z,19.92
2022-08-05T22:44:40.616Z,19.80
2022-08-05T22:47:11.273Z,19.85
2022-08-05T22:50:19.893Z,19.90
2022-08-05T22:52:34.339Z,19.98
2022-08-05T22:55:04.175Z,19.79
2022-08-05T22:57:34.133Z,19.59
2022-08-05T23:00:07.744Z,19.64
2022-08-05T23:02:39.878Z,19.60
2022-08-05T23:05:18.410Z,19.73
2022-08-05T23:07:49.581Z,19.56
2022-08-05T23:10:20.712Z,19.48
2022-08-05T23:12:55.136Z,19.42
2022-08-05T23:15:26.982Z,19.45
2022-08-05T23:18:00.970Z,19.52
2022-08-05T23:20:37.336Z,19.48
2022-08-05T23:23:08.380Z,19.54
2022-08-05T23:25:53.470Z,19.35
2022-08-05T23:28:27.761Z,19.38
2022-08-05T23:31:15.756Z,19.41
2022-08-05T23:34:05.690Z,19.34
2022-08-05T23:36:38.487Z,19.23
2022-08-05T23:39:08.569Z,19.26
2022-08-05T23:41:41.082Z,19.24
2022-08-05T23:44:17.553Z,19.19
2022-08-05T23:46:48.578Z,19.14
2022-08-05T23:49:23.673Z,19.19
2022-08-05T23:52:12.888Z,19.19
2022-08-05T23:54:45.974Z,19.19
2022-08-05T23:57:14.442Z,19.11
